Decoded Metar for LFLB (CHAMBERY in FRANCE) (IATA:CMF) | Meteo·Mobile Aviation Weather
aviador You're here:

LFLB Decoded Metar

CHAMBERY in FRANCE
Report Time2018-12-15 13:00:00
UTC Time2018-12-15 13:19:46
Flight Rules vfr VFR
Wind010° at 03 kt
W.Decomp.*RWY 36: 3.0 kt HW 0.5 kt RCW
W.Rank010° ranks 3
Current wind is below 010° avg. (7.6)
Visibility9000 m
Phenomena:N/A
Clouds:Scattered 029 Hf
Overcast 170 Hf
Expected CloudBase > 2,400 ft AGL from Temp-Dew spread
Ceiling17,000 ft
Temp04°C (ISA -9)
Dew Point-2°C (65% RH)
AAT0.7°C
QNH1021 hPa
Density Alt-554 ft
Elevation784 ft
Report Wrong Elevation
Raw Report
LFLB 151300Z AUTO 01003KT 330V060 9000 SCT029 OVC170 04/M02 Q1021
NOSIG=

Extra information for LFLB:More info

Metar Taf Metar & Taf Last 4 Metars F.Rules Stats Wind Profile Meteogram Temp Stats Airport Information Weather charts Add Link Nearby VenuesMetar ALERT Operation Metar Decoded Social comments